sensor_id;sensor_type;location;lat;lon;timestamp;temperature;humidity
18805;DHT22;9530;48.930;9.526;2022-11-15T00:01:07;11.00;99.90
18805;DHT22;9530;48.930;9.526;2022-11-15T00:03:34;11.00;99.90
18805;DHT22;9530;48.930;9.526;2022-11-15T00:06:02;11.00;99.90
18805;DHT22;9530;48.930;9.526;2022-11-15T00:08:29;11.10;99.90
18805;DHT22;9530;48.930;9.526;2022-11-15T00:10:59;11.20;99.90
18805;DHT22;9530;48.930;9.526;2022-11-15T00:13:26;11.20;99.90
18805;DHT22;9530;48.930;9.526;2022-11-15T00:15:53;11.20;99.90
18805;DHT22;9530;48.930;9.526;2022-11-15T00:18:22;11.30;99.90
18805;DHT22;9530;48.930;9.526;2022-11-15T00:20:49;11.30;99.90
18805;DHT22;9530;48.930;9.526;2022-11-15T00:23:16;11.40;99.90
18805;DHT22;9530;48.930;9.526;2022-11-15T00:25:42;11.50;99.90
18805;DHT22;9530;48.930;9.526;2022-11-15T00:28:12;11.50;99.90
18805;DHT22;9530;48.930;9.526;2022-11-15T00:30:38;11.60;99.90
18805;DHT22;9530;48.930;9.526;2022-11-15T00:33:06;11.70;99.90
18805;DHT22;9530;48.930;9.526;2022-11-15T00:35:33;11.70;99.90
18805;DHT22;9530;48.930;9.526;2022-11-15T00:38:01;11.70;99.90
18805;DHT22;9530;48.930;9.526;2022-11-15T00:40:28;11.70;99.90
18805;DHT22;9530;48.930;9.526;2022-11-15T00:42:55;11.70;99.90
18805;DHT22;9530;48.930;9.526;2022-11-15T00:45:23;11.70;99.90
18805;DHT22;9530;48.930;9.526;2022-11-15T00:47:50;11.80;99.90
18805;DHT22;9530;48.930;9.526;2022-11-15T00:50:17;12.00;99.90
18805;DHT22;9530;48.930;9.526;2022-11-15T00:52:44;12.10;99.90
18805;DHT22;9530;48.930;9.526;2022-11-15T00:55:13;12.00;99.90
18805;DHT22;9530;48.930;9.526;2022-11-15T00:57:41;11.90;99.90
18805;DHT22;9530;48.930;9.526;2022-11-15T01:00:09;11.70;99.90
18805;DHT22;9530;48.930;9.526;2022-11-15T01:02:37;11.50;99.90
18805;DHT22;9530;48.930;9.526;2022-11-15T01:05:05;11.30;99.90
18805;DHT22;9530;48.930;9.526;2022-11-15T01:07:32;11.20;99.90
18805;DHT22;9530;48.930;9.526;2022-11-15T01:09:59;11.10;99.90
18805;DHT22;9530;48.930;9.526;2022-11-15T01:12:26;11.00;99.90
18805;DHT22;9530;48.930;9.526;2022-11-15T01:14:52;10.90;99.90
18805;DHT22;9530;48.930;9.526;2022-11-15T01:17:19;10.90;99.90
18805;DHT22;9530;48.930;9.526;2022-11-15T01:19:47;10.80;99.90
18805;DHT22;9530;48.930;9.526;2022-11-15T01:22:14;10.80;99.90
18805;DHT22;9530;48.930;9.526;2022-11-15T01:24:41;10.70;99.90
18805;DHT22;9530;48.930;9.526;2022-11-15T01:27:08;10.60;99.90
18805;DHT22;9530;48.930;9.526;2022-11-15T01:29:35;10.70;99.90
18805;DHT22;9530;48.930;9.526;2022-11-15T01:32:02;10.80;99.90
18805;DHT22;9530;48.930;9.526;2022-11-15T01:34:29;10.80;99.90
18805;DHT22;9530;48.930;9.526;2022-11-15T01:36:57;10.80;99.90
18805;DHT22;9530;48.930;9.526;2022-11-15T01:39:24;10.80;99.90
18805;DHT22;9530;48.930;9.526;2022-11-15T01:41:51;10.80;99.90
18805;DHT22;9530;48.930;9.526;2022-11-15T01:44:47;10.60;99.90
18805;DHT22;9530;48.930;9.526;2022-11-15T01:47:16;10.50;99.90
18805;DHT22;9530;48.930;9.526;2022-11-15T01:49:50;10.40;99.90
18805;DHT22;9530;48.930;9.526;2022-11-15T01:52:20;10.40;99.90
18805;DHT22;9530;48.930;9.526;2022-11-15T01:54:51;10.30;99.90
18805;DHT22;9530;48.930;9.526;2022-11-15T01:57:19;10.10;99.90
18805;DHT22;9530;48.930;9.526;2022-11-15T01:59:47;10.00;99.90
18805;DHT22;9530;48.930;9.526;2022-11-15T02:02:13;9.80;99.90
18805;DHT22;9530;48.930;9.526;2022-11-15T02:04:42;9.60;99.90
18805;DHT22;9530;48.930;9.526;2022-11-15T02:07:11;9.40;99.90
18805;DHT22;9530;48.930;9.526;2022-11-15T02:09:40;9.30;99.90
18805;DHT22;9530;48.930;9.526;2022-11-15T02:12:08;9.20;99.90
18805;DHT22;9530;48.930;9.526;2022-11-15T02:14:37;9.20;99.90
18805;DHT22;9530;48.930;9.526;2022-11-15T02:17:15;9.10;99.90
18805;DHT22;9530;48.930;9.526;2022-11-15T02:20:20;9.00;99.90
18805;DHT22;9530;48.930;9.526;2022-11-15T02:23:21;9.10;99.90
18805;DHT22;9530;48.930;9.526;2022-11-15T02:26:07;9.00;99.90
18805;DHT22;9530;48.930;9.526;2022-11-15T02:28:45;9.00;99.90
18805;DHT22;9530;48.930;9.526;2022-11-15T02:31:21;9.00;99.90
18805;DHT22;9530;48.930;9.526;2022-11-15T02:33:54;9.10;99.90
18805;DHT22;9530;48.930;9.526;2022-11-15T02:36:34;9.20;99.90
18805;DHT22;9530;48.930;9.526;2022-11-15T02:39:07;9.20;99.90
18805;DHT22;9530;48.930;9.526;2022-11-15T02:41:40;9.30;99.90
18805;DHT22;9530;48.930;9.526;2022-11-15T02:44:13;9.40;99.90
18805;DHT22;9530;48.930;9.526;2022-11-15T02:46:44;9.60;99.90
18805;DHT22;9530;48.930;9.526;2022-11-15T02:49:32;9.70;99.90
18805;DHT22;9530;48.930;9.526;2022-11-15T02:51:59;9.80;99.90
18805;DHT22;9530;48.930;9.526;2022-11-15T02:54:28;10.00;99.90
18805;DHT22;9530;48.930;9.526;2022-11-15T02:56:59;10.10;99.90
18805;DHT22;9530;48.930;9.526;2022-11-15T03:00:02;10.20;99.90
18805;DHT22;9530;48.930;9.526;2022-11-15T03:02:49;10.30;99.90
18805;DHT22;9530;48.930;9.526;2022-11-15T03:05:27;10.20;99.90
18805;DHT22;9530;48.930;9.526;2022-11-15T03:08:02;10.10;99.90
18805;DHT22;9530;48.930;9.526;2022-11-15T03:10:36;10.10;99.90
18805;DHT22;9530;48.930;9.526;2022-11-15T03:13:16;10.00;99.90
18805;DHT22;9530;48.930;9.526;2022-11-15T03:15:48;9.90;99.90
18805;DHT22;9530;48.930;9.526;2022-11-15T03:18:22;9.80;99.90
18805;DHT22;9530;48.930;9.526;2022-11-15T03:20:50;9.70;99.90
18805;DHT22;9530;48.930;9.526;2022-11-15T03:23:17;9.60;99.90
18805;DHT22;9530;48.930;9.526;2022-11-15T03:25:47;9.60;99.90
18805;DHT22;9530;48.930;9.526;2022-11-15T03:28:19;9.50;99.90
18805;DHT22;9530;48.930;9.526;2022-11-15T03:30:49;9.50;99.90
18805;DHT22;9530;48.930;9.526;2022-11-15T03:33:19;9.40;99.90
18805;DHT22;9530;48.930;9.526;2022-11-15T03:35:48;9.40;99.90
18805;DHT22;9530;48.930;9.526;2022-11-15T03:38:23;9.30;99.90
18805;DHT22;9530;48.930;9.526;2022-11-15T03:40:54;9.30;99.90
18805;DHT22;9530;48.930;9.526;2022-11-15T03:43:30;9.20;99.90
18805;DHT22;9530;48.930;9.526;2022-11-15T03:46:02;9.20;99.90
18805;DHT22;9530;48.930;9.526;2022-11-15T03:48:35;9.10;99.90
18805;DHT22;9530;48.930;9.526;2022-11-15T03:51:04;9.10;99.90
18805;DHT22;9530;48.930;9.526;2022-11-15T03:53:31;9.10;99.90
18805;DHT22;9530;48.930;9.526;2022-11-15T03:55:58;9.10;99.90
18805;DHT22;9530;48.930;9.526;2022-11-15T03:58:24;9.00;99.90
18805;DHT22;9530;48.930;9.526;2022-11-15T04:00:51;8.90;99.90
18805;DHT22;9530;48.930;9.526;2022-11-15T04:03:18;8.90;99.90
18805;DHT22;9530;48.930;9.526;2022-11-15T04:05:46;8.80;99.90
18805;DHT22;9530;48.930;9.526;2022-11-15T04:08:12;8.70;99.90
18805;DHT22;9530;48.930;9.526;2022-11-15T04:10:39;8.70;99.90
18805;DHT22;9530;48.930;9.526;2022-11-15T04:13:06;8.60;99.90
18805;DHT22;9530;48.930;9.526;2022-11-15T04:15:33;8.60;99.90
18805;DHT22;9530;48.930;9.526;2022-11-15T04:18:00;8.40;99.90
18805;DHT22;9530;48.930;9.526;2022-11-15T04:20:28;8.40;99.90
18805;DHT22;9530;48.930;9.526;2022-11-15T04:23:16;8.30;99.90
18805;DHT22;9530;48.930;9.526;2022-11-15T04:26:02;8.20;99.90
18805;DHT22;9530;48.930;9.526;2022-11-15T04:28:29;8.20;99.90
18805;DHT22;9530;48.930;9.526;2022-11-15T04:30:56;8.20;99.90
18805;DHT22;9530;48.930;9.526;2022-11-15T04:33:23;8.10;99.90
18805;DHT22;9530;48.930;9.526;2022-11-15T04:35:50;8.10;99.90
18805;DHT22;9530;48.930;9.526;2022-11-15T04:38:33;8.00;99.90
18805;DHT22;9530;48.930;9.526;2022-11-15T04:41:00;8.00;99.90
18805;DHT22;9530;48.930;9.526;2022-11-15T04:43:27;7.90;99.90
18805;DHT22;9530;48.930;9.526;2022-11-15T04:45:54;7.90;99.90
18805;DHT22;9530;48.930;9.526;2022-11-15T04:48:21;7.90;99.90
18805;DHT22;9530;48.930;9.526;2022-11-15T04:50:47;7.90;99.90
18805;DHT22;9530;48.930;9.526;2022-11-15T04:53:14;7.90;99.90
18805;DHT22;9530;48.930;9.526;2022-11-15T04:55:45;7.80;99.90
18805;DHT22;9530;48.930;9.526;2022-11-15T04:58:12;7.70;99.90
18805;DHT22;9530;48.930;9.526;2022-11-15T05:00:38;7.80;99.90
18805;DHT22;9530;48.930;9.526;2022-11-15T05:03:06;7.80;99.90
18805;DHT22;9530;48.930;9.526;2022-11-15T05:05:50;7.80;99.90
18805;DHT22;9530;48.930;9.526;2022-11-15T05:08:16;7.80;99.90
18805;DHT22;9530;48.930;9.526;2022-11-15T05:10:44;7.70;99.90
18805;DHT22;9530;48.930;9.526;2022-11-15T05:13:11;7.70;99.90
18805;DHT22;9530;48.930;9.526;2022-11-15T05:15:38;7.50;99.90
18805;DHT22;9530;48.930;9.526;2022-11-15T05:18:04;7.40;99.90
18805;DHT22;9530;48.930;9.526;2022-11-15T05:20:31;7.40;99.90
18805;DHT22;9530;48.930;9.526;2022-11-15T05:22:58;7.40;99.90
18805;DHT22;9530;48.930;9.526;2022-11-15T05:25:25;7.30;99.90
18805;DHT22;9530;48.930;9.526;2022-11-15T05:27:53;7.30;99.90
18805;DHT22;9530;48.930;9.526;2022-11-15T05:30:20;7.30;99.90
18805;DHT22;9530;48.930;9.526;2022-11-15T05:32:47;7.30;99.90
18805;DHT22;9530;48.930;9.526;2022-11-15T05:35:18;7.30;99.90
18805;DHT22;9530;48.930;9.526;2022-11-15T05:37:46;7.30;99.90
18805;DHT22;9530;48.930;9.526;2022-11-15T05:40:13;7.30;99.90
18805;DHT22;9530;48.930;9.526;2022-11-15T05:42:39;7.20;99.90
18805;DHT22;9530;48.930;9.526;2022-11-15T05:45:08;7.20;99.90
18805;DHT22;9530;48.930;9.526;2022-11-15T05:47:37;7.20;99.90
18805;DHT22;9530;48.930;9.526;2022-11-15T05:50:05;7.20;99.90
18805;DHT22;9530;48.930;9.526;2022-11-15T05:52:34;7.30;99.90
18805;DHT22;9530;48.930;9.526;2022-11-15T05:55:03;7.30;99.90
18805;DHT22;9530;48.930;9.526;2022-11-15T05:57:32;7.40;99.90
18805;DHT22;9530;48.930;9.526;2022-11-15T05:59:58;7.40;99.90
18805;DHT22;9530;48.930;9.526;2022-11-15T06:02:27;7.60;99.90
18805;DHT22;9530;48.930;9.526;2022-11-15T06:04:53;7.70;99.90
18805;DHT22;9530;48.930;9.526;2022-11-15T06:07:20;7.70;99.90
18805;DHT22;9530;48.930;9.526;2022-11-15T06:09:47;7.80;99.90
18805;DHT22;9530;48.930;9.526;2022-11-15T06:12:13;7.90;99.90
18805;DHT22;9530;48.930;9.526;2022-11-15T06:14:40;8.10;99.90
18805;DHT22;9530;48.930;9.526;2022-11-15T06:17:07;8.20;99.90
18805;DHT22;9530;48.930;9.526;2022-11-15T06:19:35;8.40;99.90
18805;DHT22;9530;48.930;9.526;2022-11-15T06:22:02;8.60;99.90
18805;DHT22;9530;48.930;9.526;2022-11-15T06:24:28;8.70;99.90
18805;DHT22;9530;48.930;9.526;2022-11-15T06:26:55;8.80;99.90
18805;DHT22;9530;48.930;9.526;2022-11-15T06:29:22;9.00;99.90
18805;DHT22;9530;48.930;9.526;2022-11-15T06:31:49;9.00;99.90
18805;DHT22;9530;48.930;9.526;2022-11-15T06:34:16;9.10;99.90
18805;DHT22;9530;48.930;9.526;2022-11-15T06:36:44;9.10;99.90
18805;DHT22;9530;48.930;9.526;2022-11-15T06:39:11;9.00;99.90
18805;DHT22;9530;48.930;9.526;2022-11-15T06:41:37;9.10;99.90
18805;DHT22;9530;48.930;9.526;2022-11-15T06:44:04;9.20;99.90
18805;DHT22;9530;48.930;9.526;2022-11-15T06:46:31;9.10;99.90
18805;DHT22;9530;48.930;9.526;2022-11-15T06:48:57;9.10;99.90
18805;DHT22;9530;48.930;9.526;2022-11-15T06:51:24;9.10;99.90
18805;DHT22;9530;48.930;9.526;2022-11-15T06:53:52;9.10;99.90
18805;DHT22;9530;48.930;9.526;2022-11-15T06:56:19;9.00;99.90
18805;DHT22;9530;48.930;9.526;2022-11-15T06:58:46;8.90;99.90
18805;DHT22;9530;48.930;9.526;2022-11-15T07:01:13;8.90;99.90
18805;DHT22;9530;48.930;9.526;2022-11-15T07:03:41;8.80;99.90
18805;DHT22;9530;48.930;9.526;2022-11-15T07:06:09;8.70;99.90
18805;DHT22;9530;48.930;9.526;2022-11-15T07:08:35;8.60;99.90
18805;DHT22;9530;48.930;9.526;2022-11-15T07:11:06;8.50;99.90
18805;DHT22;9530;48.930;9.526;2022-11-15T07:13:35;8.50;99.90
18805;DHT22;9530;48.930;9.526;2022-11-15T07:16:03;8.40;99.90
18805;DHT22;9530;48.930;9.526;2022-11-15T07:18:29;8.40;99.90
18805;DHT22;9530;48.930;9.526;2022-11-15T07:21:00;8.40;99.90
18805;DHT22;9530;48.930;9.526;2022-11-15T07:23:27;8.40;99.90
18805;DHT22;9530;48.930;9.526;2022-11-15T07:25:55;8.30;99.90
18805;DHT22;9530;48.930;9.526;2022-11-15T07:28:23;8.40;99.90
18805;DHT22;9530;48.930;9.526;2022-11-15T07:30:50;8.40;99.90
18805;DHT22;9530;48.930;9.526;2022-11-15T07:33:17;8.30;99.90
18805;DHT22;9530;48.930;9.526;2022-11-15T07:35:43;8.30;99.90
18805;DHT22;9530;48.930;9.526;2022-11-15T07:38:12;8.20;99.90
18805;DHT22;9530;48.930;9.526;2022-11-15T07:40:40;8.20;99.90
18805;DHT22;9530;48.930;9.526;2022-11-15T07:43:07;8.20;99.90
18805;DHT22;9530;48.930;9.526;2022-11-15T07:45:40;8.20;99.90
18805;DHT22;9530;48.930;9.526;2022-11-15T07:48:07;8.30;99.90
18805;DHT22;9530;48.930;9.526;2022-11-15T07:50:34;8.40;99.90
18805;DHT22;9530;48.930;9.526;2022-11-15T07:53:01;8.50;99.90
18805;DHT22;9530;48.930;9.526;2022-11-15T07:55:28;8.50;99.90
18805;DHT22;9530;48.930;9.526;2022-11-15T07:58:00;8.50;99.90
18805;DHT22;9530;48.930;9.526;2022-11-15T08:00:27;8.60;99.90
18805;DHT22;9530;48.930;9.526;2022-11-15T08:03:02;8.70;99.90
18805;DHT22;9530;48.930;9.526;2022-11-15T08:05:29;8.90;99.90
18805;DHT22;9530;48.930;9.526;2022-11-15T08:07:56;9.00;99.90
18805;DHT22;9530;48.930;9.526;2022-11-15T08:10:23;9.20;99.90
18805;DHT22;9530;48.930;9.526;2022-11-15T08:12:57;9.40;99.90
18805;DHT22;9530;48.930;9.526;2022-11-15T08:15:24;9.60;99.90
18805;DHT22;9530;48.930;9.526;2022-11-15T08:17:53;9.70;99.90
18805;DHT22;9530;48.930;9.526;2022-11-15T08:20:21;9.90;99.90
18805;DHT22;9530;48.930;9.526;2022-11-15T08:22:48;9.90;99.90
18805;DHT22;9530;48.930;9.526;2022-11-15T08:25:15;10.00;99.90
18805;DHT22;9530;48.930;9.526;2022-11-15T08:27:42;10.10;99.90
18805;DHT22;9530;48.930;9.526;2022-11-15T08:30:09;10.10;99.90
18805;DHT22;9530;48.930;9.526;2022-11-15T08:32:36;10.20;99.90
18805;DHT22;9530;48.930;9.526;2022-11-15T08:35:04;10.30;99.90
18805;DHT22;9530;48.930;9.526;2022-11-15T08:37:32;10.40;99.90
18805;DHT22;9530;48.930;9.526;2022-11-15T08:39:59;10.50;99.90
18805;DHT22;9530;48.930;9.526;2022-11-15T08:42:26;10.70;99.90
18805;DHT22;9530;48.930;9.526;2022-11-15T08:44:53;10.80;99.90
18805;DHT22;9530;48.930;9.526;2022-11-15T08:47:19;10.90;99.90
18805;DHT22;9530;48.930;9.526;2022-11-15T08:49:46;11.10;99.90
18805;DHT22;9530;48.930;9.526;2022-11-15T08:52:13;11.30;99.90
18805;DHT22;9530;48.930;9.526;2022-11-15T08:54:41;11.60;99.90
18805;DHT22;9530;48.930;9.526;2022-11-15T08:57:08;11.80;99.90
18805;DHT22;9530;48.930;9.526;2022-11-15T08:59:35;11.80;99.90
18805;DHT22;9530;48.930;9.526;2022-11-15T09:02:02;12.00;99.90
18805;DHT22;9530;48.930;9.526;2022-11-15T09:04:29;12.10;99.90
18805;DHT22;9530;48.930;9.526;2022-11-15T09:06:56;12.30;99.90
18805;DHT22;9530;48.930;9.526;2022-11-15T09:09:23;12.30;99.90
18805;DHT22;9530;48.930;9.526;2022-11-15T09:11:51;12.20;99.90
18805;DHT22;9530;48.930;9.526;2022-11-15T09:14:18;12.00;99.90
18805;DHT22;9530;48.930;9.526;2022-11-15T09:16:44;11.80;99.90
18805;DHT22;9530;48.930;9.526;2022-11-15T09:19:11;11.70;99.90
18805;DHT22;9530;48.930;9.526;2022-11-15T09:21:40;11.60;99.90
18805;DHT22;9530;48.930;9.526;2022-11-15T09:24:06;11.60;99.90
18805;DHT22;9530;48.930;9.526;2022-11-15T09:26:34;11.80;99.90
18805;DHT22;9530;48.930;9.526;2022-11-15T09:29:02;11.90;99.90
18805;DHT22;9530;48.930;9.526;2022-11-15T09:31:28;12.00;99.90
18805;DHT22;9530;48.930;9.526;2022-11-15T09:33:55;12.10;99.90
18805;DHT22;9530;48.930;9.526;2022-11-15T09:36:22;12.10;99.90
18805;DHT22;9530;48.930;9.526;2022-11-15T09:38:49;12.20;99.90
18805;DHT22;9530;48.930;9.526;2022-11-15T09:44:25;12.50;99.90
18805;DHT22;9530;48.930;9.526;2022-11-15T09:46:58;12.70;99.90
18805;DHT22;9530;48.930;9.526;2022-11-15T09:49:29;13.00;99.90
18805;DHT22;9530;48.930;9.526;2022-11-15T09:51:56;13.20;99.90
18805;DHT22;9530;48.930;9.526;2022-11-15T09:54:29;13.40;99.90
18805;DHT22;9530;48.930;9.526;2022-11-15T09:57:02;13.60;99.90
18805;DHT22;9530;48.930;9.526;2022-11-15T09:59:40;13.70;99.90
18805;DHT22;9530;48.930;9.526;2022-11-15T10:02:22;13.90;99.90
18805;DHT22;9530;48.930;9.526;2022-11-15T10:04:53;14.00;99.90
18805;DHT22;9530;48.930;9.526;2022-11-15T10:07:25;14.10;99.90
18805;DHT22;9530;48.930;9.526;2022-11-15T10:09:55;14.10;99.90
18805;DHT22;9530;48.930;9.526;2022-11-15T10:12:24;14.20;99.90
18805;DHT22;9530;48.930;9.526;2022-11-15T10:15:02;14.30;99.90
18805;DHT22;9530;48.930;9.526;2022-11-15T10:17:44;14.40;99.90
18805;DHT22;9530;48.930;9.526;2022-11-15T10:20:20;14.50;99.90
18805;DHT22;9530;48.930;9.526;2022-11-15T10:22:50;14.60;99.90
18805;DHT22;9530;48.930;9.526;2022-11-15T10:25:21;14.50;99.90
18805;DHT22;9530;48.930;9.526;2022-11-15T10:27:54;14.50;99.90
18805;DHT22;9530;48.930;9.526;2022-11-15T10:30:31;14.50;99.90
18805;DHT22;9530;48.930;9.526;2022-11-15T10:32:58;14.40;99.90
18805;DHT22;9530;48.930;9.526;2022-11-15T10:35:28;14.60;99.90
18805;DHT22;9530;48.930;9.526;2022-11-15T10:38:05;14.80;99.90
18805;DHT22;9530;48.930;9.526;2022-11-15T10:40:33;14.80;99.90
18805;DHT22;9530;48.930;9.526;2022-11-15T10:43:15;14.90;99.90
18805;DHT22;9530;48.930;9.526;2022-11-15T10:45:45;15.00;99.90
18805;DHT22;9530;48.930;9.526;2022-11-15T10:48:23;15.00;99.90
18805;DHT22;9530;48.930;9.526;2022-11-15T10:50:52;15.00;99.90
18805;DHT22;9530;48.930;9.526;2022-11-15T10:53:23;15.00;99.90
18805;DHT22;9530;48.930;9.526;2022-11-15T10:55:53;15.00;99.90
18805;DHT22;9530;48.930;9.526;2022-11-15T10:58:25;15.10;99.90
18805;DHT22;9530;48.930;9.526;2022-11-15T11:01:09;15.10;99.90
18805;DHT22;9530;48.930;9.526;2022-11-15T11:03:38;15.20;99.90
18805;DHT22;9530;48.930;9.526;2022-11-15T11:06:10;15.30;99.90
18805;DHT22;9530;48.930;9.526;2022-11-15T11:08:37;15.40;99.90
18805;DHT22;9530;48.930;9.526;2022-11-15T11:11:05;15.50;99.90
18805;DHT22;9530;48.930;9.526;2022-11-15T11:13:34;15.70;99.90
18805;DHT22;9530;48.930;9.526;2022-11-15T11:19:17;15.70;99.90
18805;DHT22;9530;48.930;9.526;2022-11-15T11:21:51;15.60;99.90
18805;DHT22;9530;48.930;9.526;2022-11-15T11:24:27;15.60;99.90
18805;DHT22;9530;48.930;9.526;2022-11-15T11:27:08;15.60;99.90
18805;DHT22;9530;48.930;9.526;2022-11-15T11:29:49;15.90;99.90
18805;DHT22;9530;48.930;9.526;2022-11-15T11:32:36;15.90;99.90
18805;DHT22;9530;48.930;9.526;2022-11-15T11:35:11;15.90;99.90
18805;DHT22;9530;48.930;9.526;2022-11-15T11:37:46;15.90;99.90
18805;DHT22;9530;48.930;9.526;2022-11-15T11:40:24;15.90;99.90
18805;DHT22;9530;48.930;9.526;2022-11-15T11:42:55;15.80;99.90
18805;DHT22;9530;48.930;9.526;2022-11-15T11:45:48;15.70;99.90
18805;DHT22;9530;48.930;9.526;2022-11-15T11:48:30;15.70;99.90
18805;DHT22;9530;48.930;9.526;2022-11-15T11:51:08;15.70;99.90
18805;DHT22;9530;48.930;9.526;2022-11-15T11:53:40;15.70;99.90
18805;DHT22;9530;48.930;9.526;2022-11-15T11:56:25;15.70;99.90
18805;DHT22;9530;48.930;9.526;2022-11-15T11:58:54;15.60;99.90
18805;DHT22;9530;48.930;9.526;2022-11-15T12:01:24;15.60;99.90
18805;DHT22;9530;48.930;9.526;2022-11-15T12:03:55;15.70;99.90
18805;DHT22;9530;48.930;9.526;2022-11-15T12:06:29;15.60;99.90
18805;DHT22;9530;48.930;9.526;2022-11-15T12:09:01;15.70;99.90
18805;DHT22;9530;48.930;9.526;2022-11-15T12:11:33;15.80;99.90
18805;DHT22;9530;48.930;9.526;2022-11-15T12:14:11;15.90;99.90
18805;DHT22;9530;48.930;9.526;2022-11-15T12:16:41;15.80;99.90
18805;DHT22;9530;48.930;9.526;2022-11-15T12:19:10;15.80;99.90
18805;DHT22;9530;48.930;9.526;2022-11-15T12:21:41;15.70;99.90
18805;DHT22;9530;48.930;9.526;2022-11-15T12:24:15;15.70;99.90
18805;DHT22;9530;48.930;9.526;2022-11-15T12:26:48;15.80;99.90
18805;DHT22;9530;48.930;9.526;2022-11-15T12:29:19;15.80;99.90
18805;DHT22;9530;48.930;9.526;2022-11-15T12:31:50;16.00;99.90
18805;DHT22;9530;48.930;9.526;2022-11-15T12:34:40;16.20;99.90
18805;DHT22;9530;48.930;9.526;2022-11-15T12:37:34;16.40;99.90
18805;DHT22;9530;48.930;9.526;2022-11-15T12:40:19;16.50;99.90
18805;DHT22;9530;48.930;9.526;2022-11-15T12:43:05;16.70;99.90
18805;DHT22;9530;48.930;9.526;2022-11-15T12:45:38;16.80;99.90
18805;DHT22;9530;48.930;9.526;2022-11-15T12:48:47;16.80;99.90
18805;DHT22;9530;48.930;9.526;2022-11-15T12:51:16;16.70;99.90
18805;DHT22;9530;48.930;9.526;2022-11-15T12:53:42;16.40;99.90
18805;DHT22;9530;48.930;9.526;2022-11-15T12:56:21;16.40;99.90
18805;DHT22;9530;48.930;9.526;2022-11-15T12:58:50;16.30;99.90
18805;DHT22;9530;48.930;9.526;2022-11-15T13:01:54;16.10;99.90
18805;DHT22;9530;48.930;9.526;2022-11-15T13:04:25;16.10;99.90
18805;DHT22;9530;48.930;9.526;2022-11-15T13:06:55;16.20;99.90
18805;DHT22;9530;48.930;9.526;2022-11-15T13:09:53;16.20;99.90
18805;DHT22;9530;48.930;9.526;2022-11-15T13:12:49;16.10;99.90
18805;DHT22;9530;48.930;9.526;2022-11-15T13:18:29;15.90;99.90
18805;DHT22;9530;48.930;9.526;2022-11-15T13:20:56;15.80;99.90
18805;DHT22;9530;48.930;9.526;2022-11-15T13:23:24;15.70;99.90
18805;DHT22;9530;48.930;9.526;2022-11-15T13:28:44;15.60;99.90
18805;DHT22;9530;48.930;9.526;2022-11-15T13:31:24;15.60;99.90
18805;DHT22;9530;48.930;9.526;2022-11-15T13:33:52;15.70;99.90
18805;DHT22;9530;48.930;9.526;2022-11-15T13:36:21;15.80;99.90
18805;DHT22;9530;48.930;9.526;2022-11-15T13:38:57;15.90;99.90
18805;DHT22;9530;48.930;9.526;2022-11-15T13:41:26;15.90;99.90
18805;DHT22;9530;48.930;9.526;2022-11-15T13:43:54;15.70;99.90
18805;DHT22;9530;48.930;9.526;2022-11-15T13:46:23;15.60;99.90
18805;DHT22;9530;48.930;9.526;2022-11-15T13:48:55;15.40;99.90
18805;DHT22;9530;48.930;9.526;2022-11-15T13:51:28;15.40;99.90
18805;DHT22;9530;48.930;9.526;2022-11-15T13:53:59;15.30;99.90
18805;DHT22;9530;48.930;9.526;2022-11-15T13:56:27;15.30;99.90
18805;DHT22;9530;48.930;9.526;2022-11-15T13:58:55;15.20;99.90
18805;DHT22;9530;48.930;9.526;2022-11-15T14:01:22;15.20;99.90
18805;DHT22;9530;48.930;9.526;2022-11-15T14:03:55;15.10;99.90
18805;DHT22;9530;48.930;9.526;2022-11-15T14:06:25;15.00;99.90
18805;DHT22;9530;48.930;9.526;2022-11-15T14:09:31;14.80;99.90
18805;DHT22;9530;48.930;9.526;2022-11-15T14:12:00;14.80;99.90
18805;DHT22;9530;48.930;9.526;2022-11-15T14:14:28;14.80;99.90
18805;DHT22;9530;48.930;9.526;2022-11-15T14:16:56;14.70;99.90
18805;DHT22;9530;48.930;9.526;2022-11-15T14:19:36;14.70;99.90
18805;DHT22;9530;48.930;9.526;2022-11-15T14:22:14;14.70;99.90
18805;DHT22;9530;48.930;9.526;2022-11-15T14:24:44;14.70;99.90
18805;DHT22;9530;48.930;9.526;2022-11-15T14:27:21;14.70;99.90
18805;DHT22;9530;48.930;9.526;2022-11-15T14:29:48;14.70;99.90
18805;DHT22;9530;48.930;9.526;2022-11-15T14:32:16;14.70;99.90
18805;DHT22;9530;48.930;9.526;2022-11-15T14:34:44;14.70;99.90
18805;DHT22;9530;48.930;9.526;2022-11-15T14:37:23;14.60;99.90
18805;DHT22;9530;48.930;9.526;2022-11-15T14:39:52;14.60;99.90
18805;DHT22;9530;48.930;9.526;2022-11-15T14:42:20;14.40;99.90
18805;DHT22;9530;48.930;9.526;2022-11-15T14:44:47;14.20;99.90
18805;DHT22;9530;48.930;9.526;2022-11-15T14:47:14;14.10;99.90
18805;DHT22;9530;48.930;9.526;2022-11-15T14:49:41;14.10;99.90
18805;DHT22;9530;48.930;9.526;2022-11-15T14:52:25;13.90;99.90
18805;DHT22;9530;48.930;9.526;2022-11-15T14:54:54;13.90;99.90
18805;DHT22;9530;48.930;9.526;2022-11-15T14:57:21;13.90;99.90
18805;DHT22;9530;48.930;9.526;2022-11-15T14:59:48;13.80;99.90
18805;DHT22;9530;48.930;9.526;2022-11-15T15:02:18;13.70;99.90
18805;DHT22;9530;48.930;9.526;2022-11-15T15:04:45;13.60;99.90
18805;DHT22;9530;48.930;9.526;2022-11-15T15:07:12;13.50;99.90
18805;DHT22;9530;48.930;9.526;2022-11-15T15:09:39;13.50;99.90
18805;DHT22;9530;48.930;9.526;2022-11-15T15:12:14;13.40;99.90
18805;DHT22;9530;48.930;9.526;2022-11-15T15:14:41;13.30;99.90
18805;DHT22;9530;48.930;9.526;2022-11-15T15:17:08;13.10;99.90
18805;DHT22;9530;48.930;9.526;2022-11-15T15:19:35;13.00;99.90
18805;DHT22;9530;48.930;9.526;2022-11-15T15:22:02;12.90;99.90
18805;DHT22;9530;48.930;9.526;2022-11-15T15:24:29;12.90;99.90
18805;DHT22;9530;48.930;9.526;2022-11-15T15:26:55;12.80;99.90
18805;DHT22;9530;48.930;9.526;2022-11-15T15:29:23;12.70;99.90
18805;DHT22;9530;48.930;9.526;2022-11-15T15:31:50;12.70;99.90
18805;DHT22;9530;48.930;9.526;2022-11-15T15:34:17;12.60;99.90
18805;DHT22;9530;48.930;9.526;2022-11-15T15:36:43;12.60;99.90
18805;DHT22;9530;48.930;9.526;2022-11-15T15:39:10;12.60;99.90
18805;DHT22;9530;48.930;9.526;2022-11-15T15:41:37;12.60;99.90
18805;DHT22;9530;48.930;9.526;2022-11-15T15:44:04;12.70;99.90
18805;DHT22;9530;48.930;9.526;2022-11-15T15:46:34;12.60;99.90
18805;DHT22;9530;48.930;9.526;2022-11-15T15:49:00;12.60;99.90
18805;DHT22;9530;48.930;9.526;2022-11-15T15:51:27;12.80;99.90
18805;DHT22;9530;48.930;9.526;2022-11-15T15:53:54;12.80;99.90
18805;DHT22;9530;48.930;9.526;2022-11-15T15:56:22;12.80;99.90
18805;DHT22;9530;48.930;9.526;2022-11-15T15:58:49;12.90;99.90
18805;DHT22;9530;48.930;9.526;2022-11-15T16:01:18;12.80;99.90
18805;DHT22;9530;48.930;9.526;2022-11-15T16:03:46;12.70;99.90
18805;DHT22;9530;48.930;9.526;2022-11-15T16:06:34;12.60;99.90
18805;DHT22;9530;48.930;9.526;2022-11-15T16:09:02;12.60;99.90
18805;DHT22;9530;48.930;9.526;2022-11-15T16:11:29;12.70;99.90
18805;DHT22;9530;48.930;9.526;2022-11-15T16:13:55;12.60;99.90
18805;DHT22;9530;48.930;9.526;2022-11-15T16:16:22;12.60;99.90
18805;DHT22;9530;48.930;9.526;2022-11-15T16:18:50;12.70;99.90
18805;DHT22;9530;48.930;9.526;2022-11-15T16:21:19;12.60;99.90
18805;DHT22;9530;48.930;9.526;2022-11-15T16:23:45;12.60;99.90
18805;DHT22;9530;48.930;9.526;2022-11-15T16:26:18;12.70;99.90